KLHM

Lincoln Regional / Karl Harder Field Airport

Lincoln, California, USA
METAR KLHM 212315Z AUTO 24007KT 10SM CLR 28/12 A2988 RMK AO1
Observed Flight Rules
Aug-21 @ 23:15 UTC (30 minutes ago) Visual Flight Rules
Wind Visibility Clouds
240° at 7 knots 10 miles
  • Clear skies
Temperatures Readings
Current 28°C / 82°F
Dewpoint 12°C / 54°F
Humidity 37%
Altimeter 29.88" Hg
Pressure 1012 hPa
Elevation 37
METAR KLHM 212315Z AUTO 24007KT 10SM CLR 28/12 A2988 RMK AO1
Observed Flight Rules
Aug-21 @ 23:15 UTC
(30 minutes ago)
VFR
Wind Visibility
240° at 7 knots 10 miles
Clouds
  • Clear skies
Temperature Dewpoint
28°C / 82°F 12°C / 54°F
Humidity Altimeter Pressure
37% 29.88" Hg 1012 hPa